Back to Top

Language: 

My Weather Underground Personal Weather Station Historical Data with Graphs...

Delerius Weather Station Historical Data
Daily Summary for October 15, 2017 Units:  Metric    English   Both
« Previous Day
Next Day »
Daily Weekly Monthly Yearly Custom
  High: Low: Average:
Temperature: 20 °C 13.1 °C 15.6 °C
Dew Point: 14.3 °C 11.8 °C 12.7 °C
Humidity: 93 % 68 % 83 %
Wind Speed: 20.9 km/h 0 km/h 8.4 km/h
Wind Gust: 35.4 km/h - -
Wind:- - SSW
Pressure: 1018.2 hPa 1012.8 hPa -
Precipitation: 0 mm    
Historical Graphs
 
 
Tabular Data for October 15, 2017
Time Temperature Dew Point Pressure Wind Wind Speed Wind Gust Humidity Rainfall Rate (Hourly) solar Conditions
00:01 14.8 °C 12.3 °C 1018.2 hPa SSW 9.7 km/h 19.3 km/h 85 % 0 mm 0 W/m2
00:06 14.8 °C 12.3 °C 1018.2 hPa SSW 9.7 km/h 19.3 km/h 85 % 0 mm 0 W/m2
00:11 14.7 °C 12.2 °C 1018.2 hPa SSW 11.3 km/h 19.3 km/h 85 % 0 mm 0 W/m2
00:16 14.7 °C 12.4 °C 1018.2 hPa SSW 11.3 km/h 24.1 km/h 86 % 0 mm 0 W/m2
00:21 14.7 °C 12.4 °C 1018.2 hPa SW 12.9 km/h 24.1 km/h 86 % 0 mm 0 W/m2
00:26 14.8 °C 12.5 °C 1018.2 hPa SSW 14.5 km/h 22.5 km/h 86 % 0 mm 0 W/m2
00:31 14.8 °C 12.5 °C 1018.2 hPa SSW 14.5 km/h 20.9 km/h 86 % 0 mm 0 W/m2
00:36 14.8 °C 12.5 °C 1018.2 hPa SSW 12.9 km/h 20.9 km/h 86 % 0 mm 0 W/m2
00:41 14.7 °C 12.4 °C 1017.8 hPa SSW 11.3 km/h 20.9 km/h 86 % 0 mm 0 W/m2
00:46 14.6 °C 12.3 °C 1018.2 hPa South 9.7 km/h 17.7 km/h 86 % 0 mm 0 W/m2
00:51 14.6 °C 12.3 °C 1018.2 hPa South 8 km/h 16.1 km/h 86 % 0 mm 0 W/m2
00:56 14.4 °C 12.1 °C 1018.2 hPa SSW 6.4 km/h 12.9 km/h 86 % 0 mm 0 W/m2
01:01 14.3 °C 12.2 °C 1018.2 hPa SSW 8 km/h 22.5 km/h 87 % 0 mm 0 W/m2
01:06 14.4 °C 12.3 °C 1017.8 hPa SSW 12.9 km/h 25.7 km/h 87 % 0 mm 0 W/m2
01:11 14.5 °C 12.3 °C 1017.8 hPa SSW 14.5 km/h 25.7 km/h 87 % 0 mm 0 W/m2
01:16 14.6 °C 12.4 °C 1017.8 hPa SSW 14.5 km/h 24.1 km/h 87 % 0 mm 0 W/m2
01:21 14.6 °C 12.4 °C 1017.8 hPa SSW 16.1 km/h 25.7 km/h 87 % 0 mm 0 W/m2
01:26 14.6 °C 12.4 °C 1017.8 hPa SSW 16.1 km/h 25.7 km/h 87 % 0 mm 0 W/m2
01:27 14.6 °C 12.4 °C 1017.8 hPa SSW 16.1 km/h 25.7 km/h 87 % 0 mm 0 W/m2
01:32 14.6 °C 12.4 °C 1017.8 hPa SSW 14.5 km/h 25.7 km/h 87 % 0 mm 0 W/m2
01:37 14.6 °C 12.4 °C 1017.8 hPa SSW 12.9 km/h 22.5 km/h 87 % 0 mm 0 W/m2
01:42 14.6 °C 12.4 °C 1017.8 hPa SSW 12.9 km/h 22.5 km/h 87 % 0 mm 0 W/m2
01:47 14.6 °C 12.4 °C 1017.5 hPa SSW 14.5 km/h 25.7 km/h 87 % 0 mm 0 W/m2
01:52 14.6 °C 12.4 °C 1017.5 hPa SSW 14.5 km/h 25.7 km/h 87 % 0 mm 0 W/m2
01:57 14.6 °C 12.4 °C 1017.5 hPa SSW 12.9 km/h 25.7 km/h 87 % 0 mm 0 W/m2
02:02 14.6 °C 12.4 °C 1017.5 hPa SSW 12.9 km/h 22.5 km/h 87 % 0 mm 0 W/m2
02:07 14.5 °C 12.3 °C 1017.5 hPa SSW 12.9 km/h 22.5 km/h 87 % 0 mm 0 W/m2
02:12 14.5 °C 12.6 °C 1017.5 hPa SW 11.3 km/h 20.9 km/h 88 % 0 mm 0 W/m2
02:17 14.6 °C 12.6 °C 1017.5 hPa SSW 12.9 km/h 24.1 km/h 88 % 0 mm 0 W/m2
02:22 14.6 °C 12.4 °C 1017.5 hPa SW 12.9 km/h 24.1 km/h 87 % 0 mm 0 W/m2
02:27 14.5 °C 12.3 °C 1017.5 hPa SW 9.7 km/h 20.9 km/h 87 % 0 mm 0 W/m2
02:32 14.4 °C 12.3 °C 1017.5 hPa SSW 6.4 km/h 19.3 km/h 87 % 0 mm 0 W/m2
02:37 14.4 °C 12.3 °C 1017.2 hPa South 6.4 km/h 17.7 km/h 87 % 0 mm 0 W/m2
02:42 14.4 °C 12.3 °C 1017.2 hPa SSE 6.4 km/h 17.7 km/h 87 % 0 mm 0 W/m2
02:47 14.3 °C 12.2 °C 1017.2 hPa South 4.8 km/h 11.3 km/h 87 % 0 mm 0 W/m2
02:52 14.3 °C 12.2 °C 1016.8 hPa South 6.4 km/h 14.5 km/h 87 % 0 mm 0 W/m2
02:57 14.3 °C 12.2 °C 1016.8 hPa SSE 8 km/h 14.5 km/h 87 % 0 mm 0 W/m2
02:58 14.2 °C 12.1 °C 1016.8 hPa SSE 8 km/h 14.5 km/h 87 % 0 mm 0 W/m2
03:03 14.2 °C 12.2 °C 1016.8 hPa SSE 8 km/h 14.5 km/h 88 % 0 mm 0 W/m2
03:08 14.2 °C 12.2 °C 1016.8 hPa South 8 km/h 12.9 km/h 88 % 0 mm 0 W/m2
03:13 14.2 °C 12.2 °C 1016.5 hPa South 8 km/h 12.9 km/h 88 % 0 mm 0 W/m2
03:18 14.1 °C 12.2 °C 1016.5 hPa South 6.4 km/h 14.5 km/h 88 % 0 mm 0 W/m2
03:23 14.1 °C 12.2 °C 1016.5 hPa SSE 8 km/h 14.5 km/h 88 % 0 mm 0 W/m2
03:28 14 °C 12.1 °C 1016.5 hPa SSE 9.7 km/h 19.3 km/h 88 % 0 mm 0 W/m2
03:33 14.1 °C 12.2 °C 1016.5 hPa South 11.3 km/h 20.9 km/h 88 % 0 mm 0 W/m2
03:38 14.1 °C 12.2 °C 1016.5 hPa South 11.3 km/h 20.9 km/h 88 % 0 mm 0 W/m2
03:43 14.1 °C 12.2 °C 1016.5 hPa South 9.7 km/h 22.5 km/h 88 % 0 mm 0 W/m2
03:48 14.1 °C 12.2 °C 1016.5 hPa South 11.3 km/h 22.5 km/h 88 % 0 mm 0 W/m2
03:53 14.1 °C 12.2 °C 1016.1 hPa South 11.3 km/h 19.3 km/h 88 % 0 mm 0 W/m2
03:58 14.1 °C 12.2 °C 1016.1 hPa South 11.3 km/h 17.7 km/h 88 % 0 mm 0 W/m2
04:03 14 °C 12.2 °C 1016.1 hPa South 9.7 km/h 17.7 km/h 89 % 0 mm 0 W/m2
04:08 13.9 °C 12.1 °C 1016.1 hPa South 8 km/h 14.5 km/h 89 % 0 mm 0 W/m2
04:13 13.8 °C 12 °C 1016.1 hPa South 4.8 km/h 14.5 km/h 89 % 0 mm 0 W/m2
04:18 13.7 °C 11.9 °C 1015.8 hPa SW 1.6 km/h 8 km/h 89 % 0 mm 0 W/m2
04:23 13.6 °C 11.8 °C 1016.1 hPa NNW 3.2 km/h 11.3 km/h 89 % 0 mm 0 W/m2
04:28 13.4 °C 11.8 °C 1015.8 hPa NW 3.2 km/h 11.3 km/h 90 % 0 mm 0 W/m2
04:33 13.4 °C 11.8 °C 1015.8 hPa West 1.6 km/h 9.7 km/h 90 % 0 mm 0 W/m2
04:38 13.4 °C 11.8 °C 1015.8 hPa WSW 3.2 km/h 9.7 km/h 90 % 0 mm 0 W/m2
04:43 13.3 °C 11.9 °C 1015.8 hPa WSW 3.2 km/h 9.7 km/h 91 % 0 mm 0 W/m2
04:48 13.3 °C 11.9 °C 1015.8 hPa SW 1.6 km/h 11.3 km/h 91 % 0 mm 0 W/m2
04:53 13.4 °C 11.9 °C 1015.8 hPa SW 4.8 km/h 12.9 km/h 91 % 0 mm 0 W/m2
04:59 13.5 °C 12.1 °C 1015.5 hPa SSW 6.4 km/h 12.9 km/h 91 % 0 mm 0 W/m2
05:04 13.5 °C 12.1 °C 1015.5 hPa SW 4.8 km/h 14.5 km/h 91 % 0 mm 0 W/m2
05:09 13.5 °C 12.1 °C 1015.5 hPa SW 4.8 km/h 14.5 km/h 91 % 0 mm 0 W/m2
05:14 13.6 °C 12.2 °C 1015.5 hPa SSW 4.8 km/h 12.9 km/h 91 % 0 mm 0 W/m2
05:19 13.7 °C 12.3 °C 1015.5 hPa SSW 8 km/h 14.5 km/h 91 % 0 mm 0 W/m2
05:24 13.7 °C 12.3 °C 1015.1 hPa SSW 8 km/h 17.7 km/h 91 % 0 mm 0 W/m2
05:29 13.8 °C 12.3 °C 1015.1 hPa SSW 8 km/h 17.7 km/h 91 % 0 mm 0 W/m2
05:34 13.8 °C 12.3 °C 1015.5 hPa SSW 9.7 km/h 20.9 km/h 91 % 0 mm 0 W/m2
05:39 13.8 °C 12.3 °C 1015.1 hPa SSW 8 km/h 20.9 km/h 91 % 0 mm 0 W/m2
05:44 13.8 °C 12.2 °C 1015.1 hPa SW 4.8 km/h 12.9 km/h 90 % 0 mm 0 W/m2
05:49 13.7 °C 12.1 °C 1015.1 hPa West 4.8 km/h 12.9 km/h 90 % 0 mm 0 W/m2
05:54 13.6 °C 12 °C 1015.1 hPa West 4.8 km/h 11.3 km/h 90 % 0 mm 0 W/m2
05:59 13.5 °C 11.9 °C 1015.1 hPa WSW 6.4 km/h 11.3 km/h 90 % 0 mm 0 W/m2
06:04 13.5 °C 12.1 °C 1015.1 hPa SW 3.2 km/h 11.3 km/h 91 % 0 mm 0 W/m2
06:09 13.4 °C 11.9 °C 1015.1 hPa SW 1.6 km/h 9.7 km/h 91 % 0 mm 0 W/m2
06:14 13.4 °C 11.9 °C 1015.1 hPa SW 4.8 km/h 14.5 km/h 91 % 0 mm 0 W/m2
06:19 13.4 °C 11.9 °C 1015.1 hPa SW 3.2 km/h 14.5 km/h 91 % 0 mm 0 W/m2
06:24 13.3 °C 11.9 °C 1015.1 hPa WSW 3.2 km/h 11.3 km/h 91 % 0 mm 0 W/m2
06:29 13.3 °C 11.9 °C 1015.1 hPa WSW 4.8 km/h 11.3 km/h 91 % 0 mm 0 W/m2
06:34 13.3 °C 12 °C 1015.1 hPa SW 6.4 km/h 12.9 km/h 92 % 0 mm 0 W/m2
06:39 13.3 °C 11.9 °C 1014.8 hPa SSW 4.8 km/h 12.9 km/h 91 % 0 mm 0 W/m2
06:44 13.3 °C 11.9 °C 1014.8 hPa SSW 4.8 km/h 11.3 km/h 91 % 0 mm 0 W/m2
06:49 13.3 °C 11.9 °C 1014.8 hPa SSW 4.8 km/h 11.3 km/h 91 % 0 mm 0 W/m2
06:54 13.2 °C 11.8 °C 1014.8 hPa SSW 3.2 km/h 11.3 km/h 91 % 0 mm 0 W/m2
06:59 13.1 °C 11.8 °C 1014.8 hPa SSW 1.6 km/h 8 km/h 92 % 0 mm 0 W/m2
07:04 13.1 °C 11.8 °C 1014.8 hPa SW 1.6 km/h 8 km/h 92 % 0 mm 0 W/m2
07:09 13.2 °C 11.9 °C 1014.8 hPa SW 3.2 km/h 8 km/h 92 % 0 mm 0 W/m2
07:14 13.1 °C 11.8 °C 1014.8 hPa South 4.8 km/h 12.9 km/h 92 % 0 mm 0 W/m2
07:19 13.1 °C 11.8 °C 1014.8 hPa South 6.4 km/h 12.9 km/h 92 % 0 mm 0 W/m2
07:24 13.1 °C 11.8 °C 1014.8 hPa SSE 6.4 km/h 11.3 km/h 92 % 0 mm 0 W/m2
07:29 13.1 °C 11.8 °C 1014.8 hPa SSE 4.8 km/h 11.3 km/h 92 % 0 mm 0 W/m2
07:34 13.1 °C 12 °C 1014.8 hPa South 3.2 km/h 9.7 km/h 93 % 0 mm 0 W/m2
07:39 13.2 °C 12.1 °C 1014.8 hPa South 4.8 km/h 11.3 km/h 93 % 0 mm 5 W/m2
07:44 13.3 °C 12.2 °C 1014.8 hPa South 6.4 km/h 12.9 km/h 93 % 0 mm 9 W/m2
07:49 13.4 °C 12.3 °C 1014.8 hPa South 4.8 km/h 12.9 km/h 93 % 0 mm 11 W/m2
07:54 13.4 °C 12.3 °C 1014.8 hPa SSW 1.6 km/h 9.7 km/h 93 % 0 mm 11 W/m2
07:59 13.4 °C 12.3 °C 1014.8 hPa SSW 3.2 km/h 9.7 km/h 93 % 0 mm 9 W/m2
08:04 13.6 °C 12.5 °C 1014.8 hPa SSW 3.2 km/h 9.7 km/h 93 % 0 mm 11 W/m2
08:09 13.6 °C 12.5 °C 1014.8 hPa SW 3.2 km/h 9.7 km/h 93 % 0 mm 16 W/m2
08:14 13.6 °C 12.5 °C 1014.8 hPa WSW 3.2 km/h 9.7 km/h 93 % 0 mm 18 W/m2
08:20 13.7 °C 12.6 °C 1014.8 hPa West 1.6 km/h 8 km/h 93 % 0 mm 16 W/m2
08:25 13.8 °C 12.7 °C 1014.8 hPa SW 1.6 km/h 9.7 km/h 93 % 0 mm 18 W/m2
08:30 13.9 °C 12.8 °C 1014.8 hPa South 6.4 km/h 14.5 km/h 93 % 0 mm 16 W/m2
08:35 14 °C 12.7 °C 1014.8 hPa South 8 km/h 17.7 km/h 92 % 0 mm 23 W/m2
08:40 14.1 °C 12.8 °C 1014.8 hPa SSW 9.7 km/h 17.7 km/h 92 % 0 mm 23 W/m2
08:45 14.2 °C 12.9 °C 1014.8 hPa SSW 11.3 km/h 24.1 km/h 92 % 0 mm 25 W/m2
08:50 14.3 °C 13 °C 1014.8 hPa SSW 9.7 km/h 24.1 km/h 92 % 0 mm 26 W/m2
08:55 14.3 °C 13 °C 1014.8 hPa SSW 9.7 km/h 16.1 km/h 92 % 0 mm 23 W/m2
09:00 14.3 °C 13 °C 1014.8 hPa SSW 9.7 km/h 17.7 km/h 92 % 0 mm 23 W/m2
09:05 14.3 °C 13 °C 1014.8 hPa SSW 9.7 km/h 17.7 km/h 92 % 0 mm 21 W/m2
09:10 14.3 °C 13 °C 1014.8 hPa SSW 8 km/h 14.5 km/h 92 % 0 mm 25 W/m2
09:15 14.3 °C 13 °C 1014.8 hPa SSW 8 km/h 14.5 km/h 92 % 0 mm 26 W/m2
09:20 14.3 °C 13 °C 1014.8 hPa SSW 8 km/h 14.5 km/h 92 % 0 mm 30 W/m2
09:25 14.3 °C 13 °C 1014.8 hPa SSW 9.7 km/h 17.7 km/h 92 % 0 mm 30 W/m2
09:30 14.4 °C 13.1 °C 1014.8 hPa SSW 11.3 km/h 17.7 km/h 92 % 0 mm 33 W/m2
09:40 14.4 °C 13.1 °C 1014.4 hPa SSW 8 km/h 14.5 km/h 92 % 0 mm 98 W/m2
09:45 14.5 °C 13.2 °C 1014.4 hPa SSW 8 km/h 16.1 km/h 92 % 0 mm 76 W/m2
09:50 14.6 °C 13.3 °C 1014.4 hPa SSW 8 km/h 16.1 km/h 92 % 0 mm 76 W/m2
09:55 14.7 °C 13.4 °C 1014.4 hPa SSW 8 km/h 16.1 km/h 92 % 0 mm 69 W/m2
10:00 14.7 °C 13.2 °C 1014.4 hPa SSW 8 km/h 14.5 km/h 91 % 0 mm 86 W/m2
10:05 14.8 °C 13.3 °C 1014.1 hPa SSW 9.7 km/h 14.5 km/h 91 % 0 mm 107 W/m2
10:10 14.9 °C 13.4 °C 1014.1 hPa SSW 8 km/h 14.5 km/h 91 % 0 mm 98 W/m2
10:15 15 °C 13.6 °C 1014.1 hPa South 8 km/h 14.5 km/h 91 % 0 mm 142 W/m2
10:20 15.1 °C 13.4 °C 1014.1 hPa South 6.4 km/h 14.5 km/h 90 % 0 mm 167 W/m2
10:25 15.3 °C 13.7 °C 1014.1 hPa South 4.8 km/h 14.5 km/h 90 % 0 mm 248 W/m2
10:30 15.4 °C 13.8 °C 1014.1 hPa SSW 1.6 km/h 8 km/h 90 % 0 mm 195 W/m2
10:36 15.7 °C 13.9 °C 1014.1 hPa Calm   8 km/h 89 % 0 mm 214 W/m2
10:41 15.8 °C 13.8 °C 1014.1 hPa SSW 3.2 km/h 16.1 km/h 88 % 0 mm 104 W/m2
10:46 15.8 °C 13.7 °C 1014.1 hPa SSW 9.7 km/h 16.1 km/h 87 % 0 mm 72 W/m2
10:51 15.8 °C 13.7 °C 1014.1 hPa SSW 12.9 km/h 17.7 km/h 87 % 0 mm 97 W/m2
10:56 15.8 °C 13.7 °C 1014.1 hPa SSW 11.3 km/h 17.7 km/h 87 % 0 mm 111 W/m2
11:01 15.8 °C 13.4 °C 1014.1 hPa SW 11.3 km/h 19.3 km/h 86 % 0 mm 111 W/m2
11:06 15.9 °C 13.6 °C 1014.1 hPa SW 12.9 km/h 19.3 km/h 86 % 0 mm 123 W/m2
11:11 16.1 °C 13.6 °C 1013.8 hPa SW 16.1 km/h 33.8 km/h 85 % 0 mm 142 W/m2
11:16 16.2 °C 13.5 °C 1013.8 hPa SW 19.3 km/h 33.8 km/h 84 % 0 mm 134 W/m2
11:21 16.3 °C 13.4 °C 1013.8 hPa SW 20.9 km/h 35.4 km/h 83 % 0 mm 174 W/m2
11:26 16.4 °C 13.3 °C 1013.8 hPa SW 20.9 km/h 35.4 km/h 82 % 0 mm 100 W/m2
11:31 16.4 °C 13.3 °C 1013.8 hPa SW 20.9 km/h 33.8 km/h 82 % 0 mm 91 W/m2
11:36 16.4 °C 13.3 °C 1014.1 hPa SW 19.3 km/h 33.8 km/h 82 % 0 mm 88 W/m2
11:41 16.4 °C 13.3 °C 1013.8 hPa SSW 19.3 km/h 33.8 km/h 82 % 0 mm 102 W/m2
11:46 16.5 °C 13.4 °C 1013.8 hPa SW 20.9 km/h 30.6 km/h 82 % 0 mm 77 W/m2
11:51 16.5 °C 13.2 °C 1014.1 hPa SW 19.3 km/h 30.6 km/h 81 % 0 mm 79 W/m2
11:56 16.6 °C 13.3 °C 1014.1 hPa SW 17.7 km/h 30.6 km/h 81 % 0 mm 100 W/m2
12:01 16.6 °C 13.3 °C 1014.1 hPa SW 17.7 km/h 33.8 km/h 81 % 0 mm 111 W/m2
12:06 16.7 °C 13.2 °C 1014.1 hPa SW 17.7 km/h 33.8 km/h 80 % 0 mm 90 W/m2
12:11 16.8 °C 13.1 °C 1014.1 hPa WSW 17.7 km/h 29 km/h 79 % 0 mm 121 W/m2
12:16 16.9 °C 13.2 °C 1014.1 hPa SW 16.1 km/h 25.7 km/h 79 % 0 mm 114 W/m2
12:21 17 °C 13.1 °C 1013.8 hPa SW 14.5 km/h 25.7 km/h 78 % 0 mm 141 W/m2
12:26 17.1 °C 13.1 °C 1014.1 hPa WSW 17.7 km/h 35.4 km/h 77 % 0 mm 181 W/m2
12:31 17.2 °C 13.1 °C 1013.8 hPa WSW 17.7 km/h 35.4 km/h 77 % 0 mm 195 W/m2
12:36 17.3 °C 13.2 °C 1013.8 hPa WSW 12.9 km/h 22.5 km/h 77 % 0 mm 225 W/m2
12:41 17.5 °C 13.4 °C 1013.8 hPa SW 14.5 km/h 25.7 km/h 77 % 0 mm 225 W/m2
12:46 17.7 °C 13.4 °C 1013.8 hPa SW 16.1 km/h 25.7 km/h 76 % 0 mm 288 W/m2
12:51 18 °C 13.5 °C 1013.8 hPa SW 14.5 km/h 24.1 km/h 75 % 0 mm 554 W/m2
12:53 18.1 °C 13.6 °C 1013.8 hPa SW 12.9 km/h 24.1 km/h 75 % 0 mm 566 W/m2
12:58 18.5 °C 13.8 °C 1013.8 hPa WSW 12.9 km/h 29 km/h 74 % 0 mm 555 W/m2
13:03 18.8 °C 13.8 °C 1013.4 hPa WSW 14.5 km/h 29 km/h 73 % 0 mm 508 W/m2
13:08 18.9 °C 13.5 °C 1013.4 hPa SW 14.5 km/h 32.2 km/h 71 % 0 mm 519 W/m2
13:13 18.9 °C 13.7 °C 1013.4 hPa SW 16.1 km/h 33.8 km/h 72 % 0 mm 496 W/m2
13:18 19 °C 13.8 °C 1013.4 hPa SW 14.5 km/h 33.8 km/h 72 % 0 mm 482 W/m2
13:23 19.2 °C 13.8 °C 1013.4 hPa WSW 14.5 km/h 25.7 km/h 71 % 0 mm 469 W/m2
13:28 19.3 °C 13.7 °C 1013.4 hPa WSW 16.1 km/h 25.7 km/h 70 % 0 mm 471 W/m2
13:33 19.3 °C 13.7 °C 1013.4 hPa WSW 16.1 km/h 24.1 km/h 70 % 0 mm 478 W/m2
13:38 19.4 °C 13.8 °C 1013.4 hPa WSW 16.1 km/h 24.1 km/h 70 % 0 mm 490 W/m2
13:43 19.4 °C 13.8 °C 1013.4 hPa WSW 14.5 km/h 22.5 km/h 70 % 0 mm 513 W/m2
13:48 19.6 °C 14.2 °C 1013.4 hPa SW 12.9 km/h 20.9 km/h 71 % 0 mm 469 W/m2
13:53 19.4 °C 14 °C 1013.1 hPa SW 11.3 km/h 22.5 km/h 71 % 0 mm 438 W/m2
13:58 19.6 °C 14 °C 1013.1 hPa SW 12.9 km/h 29 km/h 70 % 0 mm 434 W/m2
14:03 19.6 °C 14 °C 1013.4 hPa SW 12.9 km/h 29 km/h 70 % 0 mm 448 W/m2
14:08 19.7 °C 14.3 °C 1013.4 hPa SW 8 km/h 14.5 km/h 71 % 0 mm 454 W/m2
14:13 19.8 °C 14.2 °C 1013.4 hPa WSW 8 km/h 22.5 km/h 70 % 0 mm 401 W/m2
14:18 19.8 °C 13.9 °C 1013.4 hPa WSW 14.5 km/h 30.6 km/h 69 % 0 mm 415 W/m2
14:23 19.7 °C 14.1 °C 1013.4 hPa WSW 16.1 km/h 30.6 km/h 70 % 0 mm 396 W/m2
14:28 19.9 °C 14.3 °C 1013.4 hPa WSW 12.9 km/h 29 km/h 70 % 0 mm 420 W/m2
14:33 20 °C 14.1 °C 1013.4 hPa West 12.9 km/h 25.7 km/h 69 % 0 mm 422 W/m2
14:38 19.8 °C 13.9 °C 1013.1 hPa SW 16.1 km/h 25.7 km/h 69 % 0 mm 401 W/m2
14:43 19.8 °C 14.2 °C 1013.1 hPa SW 14.5 km/h 25.7 km/h 70 % 0 mm 387 W/m2
14:48 19.8 °C 13.9 °C 1013.1 hPa SW 11.3 km/h 24.1 km/h 69 % 0 mm 367 W/m2
14:53 19.9 °C 14.1 °C 1013.1 hPa SW 11.3 km/h 17.7 km/h 69 % 0 mm 353 W/m2
14:58 19.9 °C 14.1 °C 1013.1 hPa SW 11.3 km/h 24.1 km/h 69 % 0 mm 378 W/m2
15:03 19.8 °C 13.7 °C 1013.1 hPa SW 14.5 km/h 24.1 km/h 68 % 0 mm 359 W/m2
15:08 19.7 °C 13.8 °C 1013.1 hPa SW 14.5 km/h 24.1 km/h 69 % 0 mm 350 W/m2
15:13 19.6 °C 13.8 °C 1013.1 hPa SW 14.5 km/h 30.6 km/h 69 % 0 mm 323 W/m2
15:18 19.5 °C 13.7 °C 1013.1 hPa SW 14.5 km/h 30.6 km/h 69 % 0 mm 294 W/m2
15:23 19.6 °C 13.8 °C 1013.1 hPa WSW 14.5 km/h 25.7 km/h 69 % 0 mm 316 W/m2
15:28 19.4 °C 13.6 °C 1013.1 hPa SW 14.5 km/h 30.6 km/h 69 % 0 mm 302 W/m2
15:33 19.3 °C 13.4 °C 1013.1 hPa SW 14.5 km/h 30.6 km/h 69 % 0 mm 283 W/m2
15:38 19.4 °C 13.6 °C 1013.1 hPa SW 14.5 km/h 24.1 km/h 69 % 0 mm 299 W/m2
15:43 19.4 °C 13.3 °C 1013.1 hPa WSW 14.5 km/h 24.1 km/h 68 % 0 mm 294 W/m2
15:48 19.3 °C 13.4 °C 1013.1 hPa WSW 16.1 km/h 30.6 km/h 69 % 0 mm 239 W/m2
15:53 19.1 °C 13.3 °C 1013.1 hPa SW 17.7 km/h 30.6 km/h 69 % 0 mm 269 W/m2
15:59 19.1 °C 13.5 °C 1013.1 hPa SW 17.7 km/h 25.7 km/h 70 % 0 mm 276 W/m2
16:04 19 °C 13.6 °C 1013.1 hPa SW 16.1 km/h 25.7 km/h 71 % 0 mm 246 W/m2
16:09 19.1 °C 13.3 °C 1013.1 hPa WSW 14.5 km/h 24.1 km/h 69 % 0 mm 237 W/m2
16:14 19 °C 13.2 °C 1013.1 hPa WSW 16.1 km/h 25.7 km/h 69 % 0 mm 214 W/m2
16:19 18.8 °C 13.4 °C 1013.1 hPa WSW 14.5 km/h 25.7 km/h 71 % 0 mm 190 W/m2
16:24 18.7 °C 13.3 °C 1012.8 hPa WSW 12.9 km/h 19.3 km/h 71 % 0 mm 167 W/m2
16:29 18.6 °C 13.2 °C 1013.1 hPa SW 11.3 km/h 17.7 km/h 71 % 0 mm 155 W/m2
16:34 18.4 °C 13.3 °C 1013.1 hPa SW 11.3 km/h 19.3 km/h 72 % 0 mm 91 W/m2
16:39 18.3 °C 13.2 °C 1013.1 hPa SW 12.9 km/h 19.3 km/h 72 % 0 mm 77 W/m2
16:44 18.2 °C 13.1 °C 1013.1 hPa SW 11.3 km/h 19.3 km/h 72 % 0 mm 74 W/m2
16:45 18.2 °C 13.1 °C 1013.1 hPa SW 11.3 km/h 19.3 km/h 72 % 0 mm 72 W/m2
16:50 18.1 °C 12.9 °C 1013.1 hPa SW 12.9 km/h 19.3 km/h 72 % 0 mm 70 W/m2
16:55 18 °C 13.1 °C 1013.1 hPa SW 12.9 km/h 22.5 km/h 73 % 0 mm 67 W/m2
17:00 17.9 °C 13 °C 1013.1 hPa SW 11.3 km/h 22.5 km/h 73 % 0 mm 65 W/m2
17:05 17.9 °C 13 °C 1013.1 hPa WSW 9.7 km/h 17.7 km/h 73 % 0 mm 60 W/m2
17:10 17.8 °C 12.9 °C 1013.1 hPa WSW 9.7 km/h 17.7 km/h 73 % 0 mm 51 W/m2
17:15 17.8 °C 12.9 °C 1013.1 hPa WSW 9.7 km/h 16.1 km/h 73 % 0 mm 46 W/m2
17:20 17.7 °C 12.8 °C 1013.1 hPa WSW 9.7 km/h 14.5 km/h 73 % 0 mm 40 W/m2
17:25 17.6 °C 12.9 °C 1013.4 hPa WSW 9.7 km/h 14.5 km/h 74 % 0 mm 37 W/m2
17:30 17.4 °C 12.7 °C 1013.4 hPa SW 9.7 km/h 14.5 km/h 74 % 0 mm 33 W/m2
17:35 17.3 °C 12.6 °C 1013.4 hPa SW 8 km/h 12.9 km/h 74 % 0 mm 28 W/m2
17:36 17.3 °C 12.6 °C 1013.4 hPa SW 8 km/h 12.9 km/h 74 % 0 mm 28 W/m2
17:41 17.2 °C 12.7 °C 1013.4 hPa WSW 6.4 km/h 12.9 km/h 75 % 0 mm 25 W/m2
17:46 17.1 °C 12.6 °C 1013.4 hPa SW 6.4 km/h 11.3 km/h 75 % 0 mm 19 W/m2
17:51 16.9 °C 12.7 °C 1013.4 hPa SW 8 km/h 12.9 km/h 76 % 0 mm 14 W/m2
17:56 16.8 °C 12.6 °C 1013.4 hPa SW 4.8 km/h 12.9 km/h 76 % 0 mm 12 W/m2
18:01 16.7 °C 12.7 °C 1013.4 hPa SW 3.2 km/h 8 km/h 77 % 0 mm 9 W/m2
18:07 16.6 °C 12.6 °C 1013.4 hPa SW 1.6 km/h 8 km/h 77 % 0 mm 5 W/m2
18:12 16.4 °C 12.6 °C 1013.8 hPa SW 1.6 km/h 6.4 km/h 78 % 0 mm 5 W/m2
18:17 16.3 °C 12.4 °C 1013.8 hPa SW 1.6 km/h 6.4 km/h 78 % 0 mm 0 W/m2
18:22 16.1 °C 12.4 °C 1013.8 hPa Calm   3.2 km/h 79 % 0 mm 0 W/m2
18:27 15.9 °C 12.3 °C 1014.1 hPa Calm   1.6 km/h 79 % 0 mm 0 W/m2
18:32 15.8 °C 12.3 °C 1014.1 hPa Calm   1.6 km/h 80 % 0 mm 0 W/m2
18:37 15.7 °C 12.3 °C 1014.1 hPa Calm     80 % 0 mm 0 W/m2
18:42 15.6 °C 12.3 °C 1014.1 hPa Calm     81 % 0 mm 0 W/m2
18:47 15.5 °C 12.3 °C 1014.1 hPa Calm     81 % 0 mm 0 W/m2
18:53 15.4 °C 12.3 °C 1014.1 hPa Calm     82 % 0 mm 0 W/m2
18:58 15.3 °C 12.2 °C 1014.1 hPa Calm     82 % 0 mm 0 W/m2
19:03 15.2 °C 12.3 °C 1014.4 hPa Calm     83 % 0 mm 0 W/m2
19:08 15.1 °C 12.4 °C 1014.4 hPa Calm     84 % 0 mm 0 W/m2
19:13 15.1 °C 12.4 °C 1014.4 hPa Calm     84 % 0 mm 0 W/m2
19:18 15.1 °C 12.4 °C 1014.4 hPa Calm     84 % 0 mm 0 W/m2
19:23 15.1 °C 12.4 °C 1014.4 hPa Calm     84 % 0 mm 0 W/m2
19:28 15.1 °C 12.4 °C 1014.4 hPa Calm   3.2 km/h 84 % 0 mm 0 W/m2
19:33 15 °C 12.3 °C 1014.4 hPa Calm   6.4 km/h 84 % 0 mm 0 W/m2
19:38 14.9 °C 12.2 °C 1014.4 hPa Calm   6.4 km/h 84 % 0 mm 0 W/m2
19:43 14.9 °C 12.4 °C 1014.4 hPa Calm   3.2 km/h 85 % 0 mm 0 W/m2
19:48 14.9 °C 12.4 °C 1014.4 hPa Calm   3.2 km/h 85 % 0 mm 0 W/m2
19:53 14.9 °C 12.4 °C 1014.4 hPa Calm     85 % 0 mm 0 W/m2
19:58 14.9 °C 12.4 °C 1014.4 hPa Calm   3.2 km/h 85 % 0 mm 0 W/m2
20:00 14.9 °C 12.4 °C 1014.4 hPa Calm   3.2 km/h 85 % 0 mm 0 W/m2
20:05 14.9 °C 12.4 °C 1014.4 hPa Calm   3.2 km/h 85 % 0 mm 0 W/m2
20:10 14.9 °C 12.4 °C 1014.4 hPa Calm   3.2 km/h 85 % 0 mm 0 W/m2
20:15 14.9 °C 12.4 °C 1014.4 hPa Calm   1.6 km/h 85 % 0 mm 0 W/m2
20:20 15 °C 12.5 °C 1014.4 hPa Calm   3.2 km/h 85 % 0 mm 0 W/m2
20:25 15 °C 12.5 °C 1014.4 hPa Calm   3.2 km/h 85 % 0 mm 0 W/m2
20:30 15.1 °C 12.6 °C 1014.4 hPa Calm     85 % 0 mm 0 W/m2
20:35 15 °C 12.5 °C 1014.4 hPa Calm   1.6 km/h 85 % 0 mm 0 W/m2
20:40 15 °C 12.5 °C 1014.4 hPa SW 1.6 km/h 9.7 km/h 85 % 0 mm 0 W/m2
20:41 14.9 °C 12.4 °C 1014.4 hPa SW 3.2 km/h 9.7 km/h 85 % 0 mm 0 W/m2
20:46 14.9 °C 12.6 °C 1014.4 hPa SW 6.4 km/h 9.7 km/h 86 % 0 mm 0 W/m2
20:51 14.9 °C 12.4 °C 1014.4 hPa SW 6.4 km/h 11.3 km/h 85 % 0 mm 0 W/m2
20:56 14.9 °C 12.4 °C 1014.4 hPa SW 8 km/h 14.5 km/h 85 % 0 mm 0 W/m2
21:01 15 °C 12.3 °C 1014.4 hPa SW 8 km/h 14.5 km/h 84 % 0 mm 0 W/m2
21:06 15.1 °C 12.4 °C 1014.4 hPa SW 6.4 km/h 12.9 km/h 84 % 0 mm 0 W/m2
21:11 15.1 °C 12.4 °C 1014.8 hPa SW 6.4 km/h 11.3 km/h 84 % 0 mm 0 W/m2
21:16 15.2 °C 12.5 °C 1014.8 hPa SW 4.8 km/h 11.3 km/h 84 % 0 mm 0 W/m2
21:17 15.2 °C 12.5 °C 1014.8 hPa SW 4.8 km/h 11.3 km/h 84 % 0 mm 0 W/m2
21:22 15.2 °C 12.3 °C 1014.8 hPa SW 3.2 km/h 8 km/h 83 % 0 mm 0 W/m2
21:27 15.2 °C 12.3 °C 1014.8 hPa SW 3.2 km/h 8 km/h 83 % 0 mm 0 W/m2
21:32 15.2 °C 12.3 °C 1014.8 hPa SW 1.6 km/h 8 km/h 83 % 0 mm 0 W/m2
21:37 15.2 °C 12.3 °C 1014.8 hPa South 1.6 km/h 8 km/h 83 % 0 mm 0 W/m2
21:42 15.2 °C 12.3 °C 1014.8 hPa South 3.2 km/h 8 km/h 83 % 0 mm 0 W/m2
21:47 15.3 °C 12.4 °C 1014.8 hPa South 3.2 km/h 8 km/h 83 % 0 mm 0 W/m2
21:52 15.3 °C 12.4 °C 1014.8 hPa South 3.2 km/h 9.7 km/h 83 % 0 mm 0 W/m2
21:57 15.3 °C 12.4 °C 1014.8 hPa South 3.2 km/h 9.7 km/h 83 % 0 mm 0 W/m2
22:02 15.3 °C 12.4 °C 1014.8 hPa South 3.2 km/h 11.3 km/h 83 % 0 mm 0 W/m2
22:07 15.3 °C 12.6 °C 1014.8 hPa South 6.4 km/h 14.5 km/h 84 % 0 mm 0 W/m2
22:12 15.3 °C 12.6 °C 1014.4 hPa South 6.4 km/h 14.5 km/h 84 % 0 mm 0 W/m2
22:17 15.3 °C 12.6 °C 1014.4 hPa South 8 km/h 16.1 km/h 84 % 0 mm 0 W/m2
22:22 15.3 °C 12.6 °C 1014.8 hPa South 8 km/h 16.1 km/h 84 % 0 mm 0 W/m2
22:27 15.3 °C 12.6 °C 1014.8 hPa South 8 km/h 16.1 km/h 84 % 0 mm 0 W/m2
22:32 15.2 °C 12.5 °C 1014.8 hPa South 9.7 km/h 17.7 km/h 84 % 0 mm 0 W/m2
22:37 15.2 °C 12.5 °C 1014.8 hPa South 9.7 km/h 17.7 km/h 84 % 0 mm 0 W/m2
22:42 15.2 °C 12.5 °C 1014.8 hPa South 9.7 km/h 16.1 km/h 84 % 0 mm 0 W/m2
22:47 15.2 °C 12.5 °C 1014.8 hPa South 9.7 km/h 16.1 km/h 84 % 0 mm 0 W/m2
22:52 15.1 °C 12.4 °C 1014.8 hPa South 8 km/h 14.5 km/h 84 % 0 mm 0 W/m2
22:57 15.1 °C 12.4 °C 1014.8 hPa South 8 km/h 14.5 km/h 84 % 0 mm 0 W/m2
23:02 15.1 °C 12.4 °C 1014.8 hPa South 8 km/h 14.5 km/h 84 % 0 mm 0 W/m2
23:07 15.1 °C 12.4 °C 1014.8 hPa South 4.8 km/h 14.5 km/h 84 % 0 mm 0 W/m2
23:12 15.1 °C 12.4 °C 1014.8 hPa South 4.8 km/h 11.3 km/h 84 % 0 mm 0 W/m2
23:17 15.1 °C 12.4 °C 1014.8 hPa South 4.8 km/h 11.3 km/h 84 % 0 mm 0 W/m2
23:23 15.1 °C 12.4 °C 1014.8 hPa South 3.2 km/h 11.3 km/h 84 % 0 mm 0 W/m2
23:28 15 °C 12.3 °C 1015.1 hPa South 3.2 km/h 8 km/h 84 % 0 mm 0 W/m2
23:33 15 °C 12.3 °C 1014.8 hPa South 3.2 km/h 9.7 km/h 84 % 0 mm 0 W/m2
23:38 15 °C 12.3 °C 1014.8 hPa South 3.2 km/h 9.7 km/h 84 % 0 mm 0 W/m2
23:43 15 °C 12.3 °C 1014.4 hPa South 4.8 km/h 9.7 km/h 84 % 0 mm 0 W/m2
23:48 15 °C 12.3 °C 1014.4 hPa SSE 4.8 km/h 9.7 km/h 84 % 0 mm 0 W/m2
23:53 15 °C 12.3 °C 1014.4 hPa SSE 4.8 km/h 11.3 km/h 84 % 0 mm 0 W/m2
23:58 14.9 °C 12.2 °C 1014.4 hPa SSE 4.8 km/h 11.3 km/h 84 % 0 mm 0 W/m2
Delerius-Weather
Compliments of Weather Underground - 2.25 mb

Data updates at regular intervals.